createdAt,value
2018-03-28T00:02:18.345Z,36.58
2018-03-28T00:04:46.796Z,35.53
2018-03-28T00:07:15.173Z,35.67
2018-03-28T00:09:43.790Z,34.47
2018-03-28T00:12:12.959Z,35.47
2018-03-28T00:14:46.260Z,35.60
2018-03-28T00:17:15.066Z,35.78
2018-03-28T00:19:44.366Z,36.70
2018-03-28T00:22:12.764Z,33.67
2018-03-28T00:24:41.332Z,35.75
2018-03-28T00:27:09.910Z,35.58
2018-03-28T00:29:38.366Z,38.67
2018-03-28T00:32:06.791Z,34.67
2018-03-28T00:34:35.624Z,36.15
2018-03-28T00:37:04.010Z,37.63
2018-03-28T00:39:33.172Z,34.97
2018-03-28T00:42:01.818Z,37.25
2018-03-28T00:44:31.122Z,37.10
2018-03-28T00:47:00.286Z,36.28
2018-03-28T00:49:29.720Z,37.08
2018-03-28T00:51:58.860Z,37.08
2018-03-28T00:54:27.316Z,35.97
2018-03-28T00:56:55.780Z,37.28
2018-03-28T00:59:24.274Z,36.30
2018-03-28T01:01:52.840Z,36.15
2018-03-28T01:04:21.528Z,35.72
2018-03-28T01:06:49.999Z,36.75
2018-03-28T01:09:19.224Z,36.28
2018-03-28T01:11:47.887Z,34.35
2018-03-28T01:14:16.387Z,36.13
2018-03-28T01:16:45.223Z,37.33
2018-03-28T01:19:13.618Z,35.28
2018-03-28T01:21:42.141Z,36.63
2018-03-28T01:24:11.022Z,36.72
2018-03-28T01:26:39.492Z,34.92
2018-03-28T01:29:08.074Z,34.80
2018-03-28T01:31:36.487Z,36.83
2018-03-28T01:34:05.031Z,37.67
2018-03-28T01:36:33.620Z,37.38
2018-03-28T01:47:55.300Z,34.45
2018-03-28T01:50:23.878Z,35.63
2018-03-28T01:52:53.019Z,37.60
2018-03-28T01:55:21.428Z,36.28
2018-03-28T01:57:50.754Z,36.17
2018-03-28T02:00:19.940Z,34.13
2018-03-28T02:02:49.115Z,36.88
2018-03-28T02:05:19.168Z,34.30
2018-03-28T02:07:47.583Z,35.55
2018-03-28T02:10:16.016Z,38.25
2018-03-28T02:12:45.154Z,36.47
2018-03-28T02:15:13.554Z,36.85
2018-03-28T02:17:41.961Z,38.67
2018-03-28T02:20:10.566Z,37.03
2018-03-28T02:22:39.143Z,37.83
2018-03-28T02:25:07.544Z,35.13
2018-03-28T02:27:36.518Z,37.67
2018-03-28T02:30:05.658Z,37.63
2018-03-28T02:32:34.197Z,36.47
2018-03-28T02:35:02.779Z,36.90
2018-03-28T02:37:31.182Z,35.17
2018-03-28T02:39:59.635Z,36.20
2018-03-28T02:42:29.036Z,39.55
2018-03-28T02:44:57.519Z,36.40
2018-03-28T02:47:26.725Z,38.47
2018-03-28T02:49:55.226Z,40.25
2018-03-28T02:52:23.591Z,40.45
2018-03-28T02:54:52.264Z,37.97
2018-03-28T02:57:20.672Z,36.15
2018-03-28T02:59:49.051Z,37.58
2018-03-28T03:02:17.604Z,37.90
2018-03-28T03:04:46.183Z,38.75
2018-03-28T03:07:14.664Z,38.70
2018-03-28T03:09:43.163Z,39.25
2018-03-28T03:12:11.732Z,36.58
2018-03-28T03:14:41.322Z,36.95
2018-03-28T03:17:10.552Z,37.17
2018-03-28T03:19:39.120Z,38.83
2018-03-28T03:22:08.282Z,39.67
2018-03-28T03:24:36.797Z,37.97
2018-03-28T03:27:06.135Z,36.70
2018-03-28T03:29:34.579Z,36.83
2018-03-28T03:32:02.961Z,38.03
2018-03-28T03:34:31.537Z,35.70
2018-03-28T03:37:00.781Z,33.92
2018-03-28T03:39:29.861Z,36.20
2018-03-28T03:41:58.326Z,37.55
2018-03-28T03:44:26.825Z,36.17
2018-03-28T03:46:55.199Z,37.88
2018-03-28T03:49:23.671Z,37.00
2018-03-28T03:51:52.234Z,37.25
2018-03-28T03:54:21.392Z,36.50
2018-03-28T03:56:50.016Z,37.70
2018-03-28T03:59:18.598Z,36.58
2018-03-28T04:01:47.009Z,35.00
2018-03-28T04:04:15.658Z,39.30
2018-03-28T04:06:44.791Z,38.20
2018-03-28T04:09:13.340Z,38.70
2018-03-28T04:11:41.782Z,37.05
2018-03-28T04:14:10.410Z,36.03
2018-03-28T04:16:39.693Z,36.60
2018-03-28T04:19:08.842Z,33.53
2018-03-28T04:21:37.379Z,36.47
2018-03-28T04:24:05.815Z,36.75
2018-03-28T04:26:34.991Z,36.78
2018-03-28T04:29:03.450Z,35.03
2018-03-28T04:31:31.937Z,36.33
2018-03-28T04:34:00.500Z,35.38
2018-03-28T04:36:29.694Z,36.10
2018-03-28T04:39:04.103Z,35.88
2018-03-28T04:41:32.603Z,35.35
2018-03-28T04:44:01.799Z,35.92
2018-03-28T04:46:30.377Z,36.95
2018-03-28T04:48:59.679Z,35.80
2018-03-28T04:51:29.075Z,33.75
2018-03-28T04:53:58.209Z,36.03
2018-03-28T04:56:26.650Z,35.72
2018-03-28T04:58:56.225Z,35.15
2018-03-28T05:01:24.595Z,33.47
2018-03-28T05:03:52.997Z,33.17
2018-03-28T05:06:21.519Z,35.47
2018-03-28T05:08:50.000Z,33.55
2018-03-28T05:11:18.461Z,36.72
2018-03-28T05:13:47.760Z,34.67
2018-03-28T05:16:16.194Z,35.95
2018-03-28T05:18:44.592Z,34.67
2018-03-28T05:21:12.954Z,34.47
2018-03-28T05:23:42.211Z,36.05
2018-03-28T05:26:10.604Z,34.95
2018-03-28T05:28:38.997Z,35.10
2018-03-28T05:31:07.742Z,35.38
2018-03-28T05:33:36.323Z,34.92
2018-03-28T05:36:05.488Z,36.30
2018-03-28T05:38:33.998Z,33.78
2018-03-28T05:41:02.378Z,37.05
2018-03-28T05:43:31.574Z,35.00
2018-03-28T05:45:59.960Z,35.40
2018-03-28T05:48:29.261Z,33.60
2018-03-28T05:50:58.153Z,32.85
2018-03-28T05:53:26.531Z,34.75
2018-03-28T05:55:54.945Z,34.65
2018-03-28T05:58:23.773Z,36.67
2018-03-28T06:00:52.912Z,33.63
2018-03-28T06:03:21.332Z,35.58
2018-03-28T06:05:51.239Z,34.53
2018-03-28T06:08:19.766Z,37.53
2018-03-28T06:10:48.907Z,37.47
2018-03-28T06:13:17.546Z,34.90
2018-03-28T06:15:46.710Z,35.28
2018-03-28T06:18:15.155Z,32.13
2018-03-28T06:20:43.702Z,34.53
2018-03-28T06:23:12.171Z,35.05
2018-03-28T06:25:41.486Z,34.13
2018-03-28T06:28:10.617Z,35.25
2018-03-28T06:30:39.050Z,34.67
2018-03-28T06:33:07.825Z,34.53
2018-03-28T06:35:36.227Z,34.83
2018-03-28T06:38:04.616Z,34.00
2018-03-28T06:40:33.082Z,34.92
2018-03-28T06:43:02.678Z,34.33
2018-03-28T06:45:31.825Z,37.85
2018-03-28T06:48:00.217Z,35.67
2018-03-28T06:50:28.680Z,34.47
2018-03-28T06:52:57.046Z,34.20
2018-03-28T06:55:25.611Z,35.10
2018-03-28T06:57:54.290Z,34.25
2018-03-28T07:00:23.435Z,32.30
2018-03-28T07:02:51.970Z,34.40
2018-03-28T07:05:21.372Z,35.78
2018-03-28T07:07:50.674Z,32.63
2018-03-28T07:10:19.972Z,36.10
2018-03-28T07:12:49.291Z,33.42
2018-03-28T07:15:17.673Z,35.97
2018-03-28T07:17:46.093Z,35.63
2018-03-28T07:20:14.634Z,34.65
2018-03-28T07:22:43.100Z,34.38
2018-03-28T07:25:12.268Z,34.22
2018-03-28T07:27:41.695Z,34.72
2018-03-28T07:30:10.191Z,33.60
2018-03-28T07:32:38.757Z,35.10
2018-03-28T07:35:07.952Z,36.22
2018-03-28T07:37:37.146Z,33.90
2018-03-28T07:40:06.363Z,33.67
2018-03-28T07:42:34.925Z,33.83
2018-03-28T07:45:04.336Z,34.47
2018-03-28T07:47:32.726Z,33.22
2018-03-28T07:50:01.211Z,32.35
2018-03-28T07:52:29.598Z,34.00
2018-03-28T07:54:57.968Z,34.65
2018-03-28T07:57:26.428Z,33.80
2018-03-28T07:59:55.642Z,32.95
2018-03-28T08:02:24.214Z,32.35
2018-03-28T08:04:53.412Z,31.08
2018-03-28T08:07:22.714Z,29.35
2018-03-28T08:09:51.134Z,30.00
2018-03-28T08:12:19.506Z,29.85
2018-03-28T08:14:48.153Z,32.15
2018-03-28T08:17:17.450Z,29.52
2018-03-28T08:19:46.668Z,29.98
2018-03-28T08:22:15.052Z,30.45
2018-03-28T08:24:43.608Z,29.75
2018-03-28T08:27:12.747Z,27.15
2018-03-28T08:29:41.293Z,29.15
2018-03-28T08:32:10.196Z,29.77
2018-03-28T08:34:38.566Z,29.23
2018-03-28T08:37:06.979Z,26.90
2018-03-28T08:39:35.625Z,28.98
2018-03-28T08:42:04.205Z,29.30
2018-03-28T08:44:32.592Z,29.90
2018-03-28T08:47:01.430Z,27.92
2018-03-28T08:49:29.951Z,28.17
2018-03-28T08:51:59.255Z,28.73
2018-03-28T08:54:27.745Z,28.55
2018-03-28T08:56:56.236Z,26.02
2018-03-28T08:59:24.797Z,27.98
2018-03-28T09:01:53.232Z,27.48
2018-03-28T09:04:21.861Z,29.77
2018-03-28T09:06:51.026Z,29.35
2018-03-28T09:09:21.002Z,29.45
2018-03-28T09:11:49.556Z,28.00
2018-03-28T09:14:18.713Z,31.35
2018-03-28T09:16:47.334Z,30.48
2018-03-28T09:19:15.828Z,30.67
2018-03-28T09:21:44.810Z,28.85
2018-03-28T09:24:13.189Z,30.65
2018-03-28T09:26:42.348Z,28.90
2018-03-28T09:29:10.865Z,30.62
2018-03-28T09:31:40.167Z,31.02
2018-03-28T09:34:09.437Z,29.30
2018-03-28T09:36:39.318Z,29.27
2018-03-28T09:39:07.862Z,28.35
2018-03-28T09:41:36.446Z,28.20
2018-03-28T09:44:05.037Z,29.60
2018-03-28T09:46:33.451Z,30.00
2018-03-28T09:49:01.882Z,29.95
2018-03-28T09:51:31.594Z,29.75
2018-03-28T09:54:00.741Z,29.25
2018-03-28T09:56:29.153Z,29.95
2018-03-28T09:58:58.572Z,28.77
2018-03-28T10:01:33.611Z,29.50
2018-03-28T10:04:07.841Z,26.98
2018-03-28T10:06:36.326Z,27.35
2018-03-28T10:09:04.791Z,28.42
2018-03-28T10:11:33.248Z,28.42
2018-03-28T10:14:02.399Z,27.80
2018-03-28T10:16:30.771Z,28.23
2018-03-28T10:18:59.631Z,27.62
2018-03-28T10:21:28.213Z,26.87
2018-03-28T10:23:56.615Z,26.12
2018-03-28T10:26:25.088Z,24.40
2018-03-28T10:28:53.656Z,26.03
2018-03-28T10:31:22.973Z,25.40
2018-03-28T10:33:51.453Z,23.67
2018-03-28T10:36:19.832Z,24.57
2018-03-28T10:38:48.398Z,21.60
2018-03-28T10:41:16.977Z,23.70
2018-03-28T10:43:45.561Z,20.27
2018-03-28T10:46:13.939Z,20.57
2018-03-28T10:48:43.148Z,20.87
2018-03-28T10:51:11.719Z,19.63
2018-03-28T10:53:40.145Z,21.40
2018-03-28T10:56:09.026Z,21.70
2018-03-28T10:58:37.445Z,21.63
2018-03-28T11:01:05.953Z,21.90
2018-03-28T11:03:35.131Z,23.47
2018-03-28T11:06:03.520Z,23.37
2018-03-28T11:08:32.827Z,19.30
2018-03-28T11:11:02.072Z,12.80
2018-03-28T11:13:30.522Z,13.30
2018-03-28T11:15:58.920Z,13.57
2018-03-28T11:18:27.358Z,14.07
2018-03-28T11:20:56.502Z,14.90
2018-03-28T11:23:24.919Z,14.67
2018-03-28T11:25:54.141Z,15.03
2018-03-28T11:28:22.718Z,14.87
2018-03-28T11:30:52.120Z,15.00
2018-03-28T11:33:21.268Z,15.27
2018-03-28T11:35:49.697Z,15.27
2018-03-28T11:38:18.204Z,15.43
2018-03-28T11:40:46.605Z,15.30
2018-03-28T11:43:15.054Z,15.27
2018-03-28T11:45:43.619Z,14.77
2018-03-28T11:48:12.812Z,14.60
2018-03-28T11:50:42.114Z,14.57
2018-03-28T11:53:11.692Z,14.83
2018-03-28T11:55:40.080Z,15.63
2018-03-28T11:58:09.401Z,16.50
2018-03-28T12:00:37.888Z,14.93
2018-03-28T12:03:06.571Z,14.03
2018-03-28T12:05:35.154Z,16.50
2018-03-28T12:08:04.451Z,14.47
2018-03-28T12:10:33.034Z,14.70
2018-03-28T12:13:02.196Z,15.63
2018-03-28T12:15:31.408Z,15.20
2018-03-28T12:18:00.573Z,14.23
2018-03-28T12:20:29.107Z,15.73
2018-03-28T12:22:57.489Z,15.00
2018-03-28T12:25:26.730Z,14.40
2018-03-28T12:27:55.267Z,15.00
2018-03-28T12:30:24.512Z,14.20
2018-03-28T12:32:53.045Z,16.03
2018-03-28T12:35:22.195Z,14.87
2018-03-28T12:37:50.829Z,14.87
2018-03-28T12:40:20.126Z,15.80
2018-03-28T12:42:49.425Z,14.83
2018-03-28T12:45:18.615Z,15.40
2018-03-28T12:47:47.210Z,15.50
2018-03-28T12:50:15.710Z,14.50
2018-03-28T12:52:44.147Z,16.37
2018-03-28T12:55:13.301Z,15.30
2018-03-28T12:57:41.711Z,14.60
2018-03-28T13:00:10.160Z,15.07
2018-03-28T13:02:38.711Z,15.30
2018-03-28T13:05:08.027Z,15.20
2018-03-28T13:07:36.464Z,15.03
2018-03-28T13:10:04.860Z,14.43
2018-03-28T13:12:34.042Z,13.30
2018-03-28T13:15:03.254Z,14.23
2018-03-28T13:17:32.971Z,14.47
2018-03-28T13:20:02.274Z,15.70
2018-03-28T13:22:30.699Z,15.10
2018-03-28T13:24:59.228Z,15.43
2018-03-28T13:27:28.366Z,13.63
2018-03-28T13:29:56.790Z,15.73
2018-03-28T13:32:25.191Z,14.47
2018-03-28T13:34:53.644Z,14.90
2018-03-28T13:37:22.143Z,14.87
2018-03-28T13:39:50.522Z,17.27
2018-03-28T13:42:19.692Z,17.97
2018-03-28T13:44:48.499Z,20.73
2018-03-28T13:47:17.647Z,19.27
2018-03-28T13:49:46.016Z,20.07
2018-03-28T13:52:14.480Z,18.50
2018-03-28T13:54:42.923Z,20.70
2018-03-28T13:57:12.245Z,20.03
2018-03-28T13:59:40.693Z,20.43
2018-03-28T14:02:09.081Z,23.27
2018-03-28T14:04:37.690Z,22.23
2018-03-28T14:07:06.189Z,21.80
2018-03-28T14:09:34.648Z,21.73
2018-03-28T14:12:03.829Z,23.60
2018-03-28T14:14:33.059Z,23.57
2018-03-28T14:17:01.523Z,24.47
2018-03-28T14:19:30.823Z,24.30
2018-03-28T14:21:59.982Z,23.40
2018-03-28T14:24:28.608Z,24.57
2018-03-28T14:26:57.764Z,25.27
2018-03-28T14:29:26.191Z,27.10
2018-03-28T14:31:54.765Z,24.10
2018-03-28T14:34:23.345Z,25.60
2018-03-28T14:36:53.023Z,24.33
2018-03-28T14:39:21.397Z,24.67
2018-03-28T14:41:49.832Z,24.90
2018-03-28T14:44:18.310Z,25.47
2018-03-28T14:46:46.790Z,22.23
2018-03-28T14:49:15.167Z,26.07
2018-03-28T14:51:43.841Z,25.80
2018-03-28T14:54:12.236Z,27.17
2018-03-28T14:56:40.800Z,26.93
2018-03-28T14:59:09.794Z,26.87
2018-03-28T15:01:38.189Z,25.70
2018-03-28T15:04:06.567Z,24.20
2018-03-28T15:06:34.994Z,24.83
2018-03-28T15:09:03.614Z,24.10
2018-03-28T15:11:33.016Z,25.10
2018-03-28T15:14:01.431Z,24.07
2018-03-28T15:16:29.812Z,24.43
2018-03-28T15:18:58.371Z,23.93
2018-03-28T15:21:26.748Z,20.90
2018-03-28T15:23:55.215Z,19.00
2018-03-28T15:26:24.415Z,15.80
2018-03-28T15:28:53.594Z,15.20
2018-03-28T15:31:22.034Z,15.40
2018-03-28T15:33:50.443Z,16.03
2018-03-28T15:36:18.862Z,15.63
2018-03-28T15:38:47.671Z,13.03
2018-03-28T15:41:16.071Z,13.63
2018-03-28T15:43:44.477Z,14.70
2018-03-28T15:46:13.679Z,14.50
2018-03-28T15:48:42.866Z,18.93
2018-03-28T15:51:12.006Z,15.27
2018-03-28T15:53:40.466Z,15.13
2018-03-28T15:56:09.639Z,17.40
2018-03-28T15:58:38.132Z,16.83
2018-03-28T16:01:07.384Z,16.90
2018-03-28T16:03:36.643Z,16.90
2018-03-28T16:06:05.833Z,17.10
2018-03-28T16:08:35.176Z,16.37
2018-03-28T16:11:03.633Z,17.57
2018-03-28T16:13:32.046Z,17.30
2018-03-28T16:16:00.814Z,17.17
2018-03-28T16:18:29.200Z,17.20
2018-03-28T16:20:57.753Z,17.07
2018-03-28T16:23:26.635Z,15.93
2018-03-28T16:25:55.080Z,20.27
2018-03-28T16:28:23.558Z,19.80
2018-03-28T16:30:51.992Z,20.67
2018-03-28T16:33:20.391Z,21.20
2018-03-28T16:35:48.785Z,22.53
2018-03-28T16:38:17.250Z,20.43
2018-03-28T16:40:45.667Z,21.20
2018-03-28T16:43:14.865Z,20.48
2018-03-28T16:45:43.305Z,20.98
2018-03-28T16:48:11.710Z,18.62
2018-03-28T16:50:41.051Z,17.50
2018-03-28T16:53:09.664Z,17.05
2018-03-28T16:55:38.212Z,17.67
2018-03-28T16:58:07.514Z,15.80
2018-03-28T17:00:35.922Z,14.90
2018-03-28T17:03:04.473Z,15.88
2018-03-28T17:05:33.327Z,15.75
2018-03-28T17:08:03.215Z,16.58
2018-03-28T17:10:31.594Z,17.00
2018-03-28T17:13:00.062Z,17.98
2018-03-28T17:15:28.534Z,17.35
2018-03-28T17:17:57.103Z,16.92
2018-03-28T17:20:25.698Z,18.62
2018-03-28T17:22:54.062Z,17.92
2018-03-28T17:25:23.252Z,18.23
2018-03-28T17:27:52.461Z,17.20
2018-03-28T17:30:21.626Z,15.20
2018-03-28T17:32:50.131Z,16.70
2018-03-28T17:35:19.727Z,17.80
2018-03-28T17:37:49.042Z,16.05
2018-03-28T17:40:17.438Z,16.45
2018-03-28T17:42:45.972Z,18.30
2018-03-28T17:45:16.618Z,16.65
2018-03-28T17:47:45.093Z,16.48
2018-03-28T17:50:13.478Z,15.18
2018-03-28T17:52:42.897Z,17.80
2018-03-28T17:55:11.481Z,15.93
2018-03-28T17:57:40.064Z,15.32
2018-03-28T18:00:08.535Z,15.38
2018-03-28T18:02:36.941Z,16.10
2018-03-28T18:05:05.500Z,14.85
2018-03-28T18:07:34.810Z,16.17
2018-03-28T18:10:03.384Z,16.75
2018-03-28T18:12:32.686Z,15.80
2018-03-28T18:15:01.090Z,12.88
2018-03-28T18:17:29.510Z,16.48
2018-03-28T18:19:57.900Z,17.17
2018-03-28T18:22:28.210Z,16.67
2018-03-28T18:24:56.655Z,16.30
2018-03-28T18:27:25.214Z,15.95
2018-03-28T18:29:54.084Z,15.13
2018-03-28T18:32:23.227Z,15.63
2018-03-28T18:34:51.621Z,15.93
2018-03-28T18:37:20.051Z,16.30
2018-03-28T18:39:49.174Z,12.73
2018-03-28T18:42:17.638Z,15.55
2018-03-28T18:44:46.212Z,17.37
2018-03-28T18:47:15.513Z,16.35
2018-03-28T18:49:44.700Z,17.95
2018-03-28T18:52:14.010Z,18.30
2018-03-28T18:54:43.204Z,19.27
2018-03-28T18:57:12.607Z,19.58
2018-03-28T18:59:41.812Z,19.20
2018-03-28T19:02:11.108Z,20.55
2018-03-28T19:04:39.686Z,18.35
2018-03-28T19:07:08.274Z,19.35
2018-03-28T19:09:36.685Z,18.85
2018-03-28T19:12:05.619Z,19.08
2018-03-28T19:14:34.856Z,19.77
2018-03-28T19:17:03.239Z,19.60
2018-03-28T19:19:32.000Z,18.52
2018-03-28T19:22:00.795Z,19.67
2018-03-28T19:24:29.241Z,21.45
2018-03-28T19:26:57.962Z,21.48
2018-03-28T19:29:27.364Z,20.77
2018-03-28T19:31:56.660Z,20.70
2018-03-28T19:34:25.855Z,22.02
2018-03-28T19:36:54.995Z,22.60
2018-03-28T19:39:23.377Z,20.98
2018-03-28T19:41:51.852Z,20.95
2018-03-28T19:44:20.227Z,22.17
2018-03-28T19:46:48.606Z,24.08
2018-03-28T19:49:17.151Z,23.70
2018-03-28T19:51:46.452Z,23.90
2018-03-28T19:54:15.597Z,24.67
2018-03-28T19:56:44.394Z,24.77
2018-03-28T19:59:12.784Z,21.60
2018-03-28T20:01:41.194Z,27.58
2018-03-28T20:04:10.781Z,26.40
2018-03-28T20:06:39.177Z,27.15
2018-03-28T20:09:07.596Z,26.90
2018-03-28T20:11:36.044Z,25.02
2018-03-28T20:14:05.232Z,25.80
2018-03-28T20:16:33.827Z,25.98
2018-03-28T20:19:02.230Z,25.05
2018-03-28T20:21:30.672Z,26.70
2018-03-28T20:23:59.844Z,27.30
2018-03-28T20:26:28.376Z,20.42
2018-03-28T20:28:56.750Z,24.85
2018-03-28T20:31:25.130Z,25.88
2018-03-28T20:33:53.617Z,24.40
2018-03-28T20:36:22.227Z,25.25
2018-03-28T20:38:50.601Z,25.25
2018-03-28T20:41:19.244Z,25.10
2018-03-28T20:43:47.826Z,24.50
2018-03-28T20:46:17.125Z,22.55
2018-03-28T20:48:45.706Z,23.35
2018-03-28T20:51:14.292Z,25.05
2018-03-28T20:53:43.441Z,22.92
2018-03-28T20:56:12.377Z,22.65
2018-03-28T20:58:40.885Z,20.73
2018-03-28T21:01:09.250Z,22.83
2018-03-28T21:03:38.004Z,22.27
2018-03-28T21:06:06.374Z,22.58
2018-03-28T21:08:34.818Z,21.35
2018-03-28T21:11:03.386Z,21.45
2018-03-28T21:13:31.862Z,21.35
2018-03-28T21:16:00.427Z,19.60
2018-03-28T21:18:29.738Z,19.65
2018-03-28T21:20:58.158Z,21.10
2018-03-28T21:23:26.570Z,20.95
2018-03-28T21:25:55.793Z,20.95
2018-03-28T21:28:24.284Z,21.48
2018-03-28T21:30:52.707Z,19.85
2018-03-28T21:33:21.147Z,19.77
2018-03-28T21:35:49.546Z,19.15
2018-03-28T21:38:17.953Z,20.52
2018-03-28T21:40:46.568Z,21.17
2018-03-28T21:43:15.747Z,22.25
2018-03-28T21:45:44.126Z,19.42
2018-03-28T21:48:13.344Z,19.92
2018-03-28T21:50:41.830Z,17.42
2018-03-28T21:53:10.315Z,16.58
2018-03-28T21:55:38.887Z,15.13
2018-03-28T21:58:08.203Z,16.35
2018-03-28T22:00:36.872Z,15.38
2018-03-28T22:03:05.260Z,15.70
2018-03-28T22:05:33.727Z,15.50
2018-03-28T22:08:02.169Z,16.00
2018-03-28T22:10:30.566Z,14.38
2018-03-28T22:12:59.088Z,14.70
2018-03-28T22:15:27.548Z,15.27
2018-03-28T22:17:56.953Z,14.52
2018-03-28T22:20:26.078Z,15.45
2018-03-28T22:22:54.636Z,16.40
2018-03-28T22:25:23.098Z,15.48
2018-03-28T22:27:52.325Z,12.35
2018-03-28T22:30:20.718Z,10.07
2018-03-28T22:32:49.275Z,9.27
2018-03-28T22:35:18.571Z,8.55
2018-03-28T22:37:47.867Z,7.85
2018-03-28T22:40:17.048Z,8.40
2018-03-28T22:42:46.279Z,7.62
2018-03-28T22:45:14.845Z,9.55
2018-03-28T22:47:44.550Z,9.30
2018-03-28T22:50:13.695Z,9.20
2018-03-28T22:52:42.063Z,9.85
2018-03-28T22:55:10.494Z,9.48
2018-03-28T22:57:40.379Z,9.40
2018-03-28T23:00:13.827Z,10.48
2018-03-28T23:02:42.322Z,10.32
2018-03-28T23:05:10.882Z,10.13
2018-03-28T23:07:39.325Z,9.68
2018-03-28T23:10:09.251Z,9.52
2018-03-28T23:12:37.674Z,10.15
2018-03-28T23:15:06.146Z,8.60
2018-03-28T23:17:34.530Z,8.38
2018-03-28T23:20:03.106Z,8.18
2018-03-28T23:22:40.896Z,7.07
2018-03-28T23:25:10.040Z,6.53
2018-03-28T23:27:38.470Z,7.18
2018-03-28T23:30:07.636Z,7.97
2018-03-28T23:32:37.503Z,6.70
2018-03-28T23:35:06.174Z,6.62
2018-03-28T23:37:34.528Z,6.70
2018-03-28T23:40:03.029Z,7.07
2018-03-28T23:42:31.470Z,7.32
2018-03-28T23:44:59.987Z,6.68
2018-03-28T23:47:28.383Z,6.35
2018-03-28T23:49:56.978Z,6.32
2018-03-28T23:52:25.944Z,5.75
2018-03-28T23:54:55.085Z,5.35
2018-03-28T23:57:23.619Z,4.85
2018-03-28T23:59:52.034Z,4.93
